Terminal Aerodrome Forecast
Issued by NWS Pittsburgh, PA

Current Version | Previous Version | Text Only | Print | Product List | Glossary Off
Versions: 1 2 3 4 5 6 7 8 9 10 11 12 13 14 15 16 17 18 19 20 21 22 23 24 25 26 27 28 29 30

000
FTUS41 KPBZ 200248 AAA
TAFPIT
TAF AMD
KPIT 200248Z 2003/2106 19006KT P6SM VCTS SCT035CB BKN100
     FM200700 24007KT P6SM BKN020
     FM200900 27006KT P6SM BKN015
     FM201500 32005KT P6SM BKN050
     FM210000 VRB04KT P6SM SCT120=

USA.gov is the U.S. government's official web portal to all federal, state and local government web resources and services.